createdAt,value
2024-03-08T00:02:31.675Z,26.30
2024-03-08T00:06:34.144Z,31.07
2024-03-08T00:10:36.235Z,30.00
2024-03-08T00:14:38.678Z,26.37
2024-03-08T00:18:40.750Z,25.97
2024-03-08T00:22:42.800Z,27.67
2024-03-08T00:26:44.893Z,23.83
2024-03-08T00:30:47.799Z,29.67
2024-03-08T00:34:49.694Z,25.97
2024-03-08T00:38:51.736Z,29.53
2024-03-08T00:42:54.464Z,30.17
2024-03-08T00:46:56.392Z,25.17
2024-03-08T00:50:58.738Z,23.33
2024-03-08T00:55:00.841Z,28.47
2024-03-08T00:59:03.695Z,28.73
2024-03-08T01:03:06.714Z,24.77
2024-03-08T01:07:08.703Z,24.73
2024-03-08T01:11:10.910Z,24.10
2024-03-08T01:15:13.031Z,28.97
2024-03-08T01:19:15.224Z,24.63
2024-03-08T01:23:17.185Z,26.03
2024-03-08T01:27:19.170Z,23.63
2024-03-08T01:31:21.140Z,25.03
2024-03-08T01:35:23.609Z,29.60
2024-03-08T01:39:25.581Z,24.17
2024-03-08T01:43:29.622Z,25.43
2024-03-08T01:47:34.056Z,21.27
2024-03-08T01:51:36.053Z,24.93
2024-03-08T01:55:39.035Z,26.63
2024-03-08T01:59:42.829Z,25.57
2024-03-08T02:03:46.337Z,25.63
2024-03-08T02:07:48.397Z,27.77
2024-03-08T02:11:50.309Z,29.53
2024-03-08T02:16:01.945Z,25.73
2024-03-08T02:20:06.129Z,26.73
2024-03-08T02:24:08.252Z,26.23
2024-03-08T02:28:12.183Z,29.40
2024-03-08T02:32:14.093Z,27.57
2024-03-08T02:36:17.602Z,25.87
2024-03-08T02:40:19.657Z,28.53
2024-03-08T02:44:22.832Z,25.50
2024-03-08T02:48:25.001Z,25.83
2024-03-08T02:52:27.036Z,28.30
2024-03-08T02:56:28.935Z,25.53
2024-03-08T03:00:35.349Z,28.40
2024-03-08T03:04:37.440Z,28.30
2024-03-08T03:08:39.986Z,29.70
2024-03-08T03:12:41.963Z,28.43
2024-03-08T03:16:45.171Z,29.43
2024-03-08T03:20:47.092Z,28.73
2024-03-08T03:24:48.991Z,25.43
2024-03-08T03:28:51.011Z,27.77
2024-03-08T03:32:53.427Z,25.20
2024-03-08T03:36:56.825Z,27.70
2024-03-08T03:41:05.513Z,26.13
2024-03-08T03:45:08.278Z,29.47
2024-03-08T03:49:10.316Z,26.50
2024-03-08T03:53:12.256Z,27.37
2024-03-08T03:57:14.224Z,31.30
2024-03-08T04:01:16.105Z,33.33
2024-03-08T04:05:18.087Z,30.07
2024-03-08T04:09:20.478Z,28.73
2024-03-08T04:13:22.463Z,28.00
2024-03-08T04:17:25.513Z,27.50
2024-03-08T04:21:28.241Z,28.63
2024-03-08T04:25:30.213Z,26.00
2024-03-08T04:29:35.675Z,25.43
2024-03-08T04:33:37.775Z,34.63
2024-03-08T04:37:40.282Z,30.13
2024-03-08T04:41:44.595Z,35.97
2024-03-08T04:45:46.807Z,33.23
2024-03-08T04:49:48.689Z,33.77
2024-03-08T04:53:50.962Z,32.30
2024-03-08T04:57:52.911Z,32.00
2024-03-08T05:01:54.894Z,30.73
2024-03-08T05:05:57.508Z,30.93
2024-03-08T05:09:59.773Z,30.73
2024-03-08T05:14:01.741Z,34.53
2024-03-08T05:18:04.642Z,35.57
2024-03-08T05:22:06.586Z,33.07
2024-03-08T05:26:10.037Z,29.07
2024-03-08T05:30:16.317Z,30.43
2024-03-08T05:34:18.702Z,34.33
2024-03-08T05:38:21.442Z,28.43
2024-03-08T05:42:23.458Z,34.17
2024-03-08T05:46:25.451Z,30.10
2024-03-08T05:50:28.503Z,30.27
2024-03-08T05:54:30.407Z,36.17
2024-03-08T05:58:32.672Z,38.63
2024-03-08T06:02:34.731Z,36.20
2024-03-08T06:06:39.190Z,35.73
2024-03-08T06:10:41.430Z,31.63
2024-03-08T06:14:44.482Z,33.43
2024-03-08T06:18:47.920Z,35.77
2024-03-08T06:22:50.562Z,34.97
2024-03-08T06:26:52.465Z,33.97
2024-03-08T06:30:55.348Z,33.40
2024-03-08T06:34:57.324Z,31.80
2024-03-08T06:38:59.251Z,34.20
2024-03-08T06:43:01.202Z,33.23
2024-03-08T06:47:03.168Z,31.13
2024-03-08T06:51:06.224Z,31.37
2024-03-08T06:55:08.562Z,39.97
2024-03-08T06:59:13.926Z,35.10
2024-03-08T07:03:18.542Z,39.37
2024-03-08T07:07:23.341Z,33.00
2024-03-08T07:11:25.260Z,32.17
2024-03-08T07:15:27.291Z,35.57
2024-03-08T07:19:29.693Z,32.53
2024-03-08T07:23:50.058Z,32.13
2024-03-08T07:27:53.189Z,33.73
2024-03-08T07:32:13.238Z,35.50
2024-03-08T07:36:15.992Z,32.10
2024-03-08T07:40:19.384Z,32.57
2024-03-08T07:44:21.217Z,37.73
2024-03-08T07:48:23.209Z,36.50
2024-03-08T07:52:25.127Z,35.27
2024-03-08T07:56:27.157Z,35.83
2024-03-08T08:00:29.015Z,36.70
2024-03-08T08:04:31.092Z,35.47
2024-03-08T08:08:33.481Z,37.20
2024-03-08T08:12:37.957Z,42.60
2024-03-08T08:16:42.484Z,40.57
2024-03-08T08:20:44.420Z,43.10
2024-03-08T08:24:46.571Z,37.47
2024-03-08T08:28:48.629Z,35.77
2024-03-08T08:32:50.900Z,40.23
2024-03-08T08:36:54.161Z,43.07
2024-03-08T08:40:59.036Z,43.80
2024-03-08T08:45:11.381Z,41.23
2024-03-08T08:49:21.672Z,41.47
2024-03-08T08:53:24.224Z,41.90
2024-03-08T08:57:28.419Z,38.83
2024-03-08T09:01:30.316Z,36.83
2024-03-08T09:05:33.169Z,39.07
2024-03-08T09:09:36.133Z,37.63
2024-03-08T09:13:39.013Z,40.13
2024-03-08T09:17:42.882Z,34.73
2024-03-08T09:21:45.139Z,37.87
2024-03-08T09:25:48.194Z,39.27
2024-03-08T09:29:50.557Z,38.17
2024-03-08T09:33:52.885Z,43.10
2024-03-08T09:37:55.503Z,41.17
2024-03-08T09:41:57.445Z,40.40
2024-03-08T09:45:59.747Z,40.20
2024-03-08T09:50:02.668Z,43.00
2024-03-08T09:54:11.992Z,41.00
2024-03-08T09:58:28.702Z,39.43
2024-03-08T10:02:31.049Z,39.40
2024-03-08T10:06:33.905Z,41.93
2024-03-08T10:10:36.983Z,36.43
2024-03-08T10:14:41.490Z,44.13
2024-03-08T10:18:43.416Z,38.67
2024-03-08T10:22:54.337Z,41.93
2024-03-08T10:27:05.737Z,39.43
2024-03-08T10:31:07.801Z,36.83
2024-03-08T10:35:09.971Z,35.03
2024-03-08T10:39:25.193Z,35.60
2024-03-08T10:43:32.148Z,35.00
2024-03-08T11:33:48.753Z,37.03
2024-03-08T11:37:52.325Z,36.30
2024-03-08T11:41:54.897Z,32.20
2024-03-08T11:46:09.876Z,32.60
2024-03-08T11:50:12.752Z,34.43
2024-03-08T11:54:14.788Z,36.33
2024-03-08T11:58:17.368Z,32.70
2024-03-08T12:02:20.597Z,37.37
2024-03-08T12:06:22.716Z,36.33
2024-03-08T12:10:26.010Z,36.33
2024-03-08T12:14:28.057Z,35.30
2024-03-08T12:18:35.768Z,35.00
2024-03-08T12:22:43.027Z,31.80
2024-03-08T12:26:45.097Z,36.67
2024-03-08T12:30:54.200Z,37.33
2024-03-08T12:34:57.680Z,35.30
2024-03-08T12:39:00.861Z,31.20
2024-03-08T12:43:04.018Z,34.07
2024-03-08T12:47:06.333Z,32.23
2024-03-08T12:51:10.057Z,29.87
2024-03-08T12:55:13.014Z,28.03
2024-03-08T12:59:15.178Z,32.17
2024-03-08T13:03:18.198Z,31.63
2024-03-08T13:07:20.217Z,30.07
2024-03-08T13:11:24.622Z,33.07
2024-03-08T13:15:26.869Z,31.92
2024-03-08T13:19:29.505Z,34.03
2024-03-08T13:23:31.763Z,32.73
2024-03-08T13:27:33.979Z,32.10
2024-03-08T13:31:37.594Z,36.30
2024-03-08T13:35:41.808Z,28.90
2024-03-08T13:39:46.527Z,29.90
2024-03-08T13:43:52.154Z,29.90
2024-03-08T13:47:58.181Z,31.33
2024-03-08T13:52:00.328Z,28.30
2024-03-08T13:56:04.966Z,26.17
2024-03-08T14:00:08.096Z,27.60
2024-03-08T14:04:17.550Z,29.87
2024-03-08T14:08:19.871Z,28.33
2024-03-08T14:12:22.679Z,27.83
2024-03-08T14:16:25.591Z,27.73
2024-03-08T14:20:48.638Z,34.97
2024-03-08T14:24:53.096Z,25.47
2024-03-08T14:28:55.764Z,23.50
2024-03-08T14:32:57.967Z,25.90
2024-03-08T14:37:01.238Z,24.03
2024-03-08T14:41:05.643Z,24.93
2024-03-08T14:45:08.705Z,22.10
2024-03-08T14:49:10.712Z,24.80
2024-03-08T14:53:17.731Z,22.20
2024-03-08T14:57:19.903Z,22.73
2024-03-08T15:01:25.749Z,22.63
2024-03-08T15:05:28.332Z,24.03
2024-03-08T15:09:31.578Z,21.13
2024-03-08T15:13:41.716Z,21.33
2024-03-08T15:17:43.784Z,20.13
2024-03-08T15:21:49.392Z,23.77
2024-03-08T15:25:51.524Z,19.77
2024-03-08T15:29:56.856Z,17.10
2024-03-08T15:34:02.397Z,17.43
2024-03-08T15:38:05.444Z,18.13
2024-03-08T15:42:07.593Z,21.90
2024-03-08T15:46:12.837Z,17.75
2024-03-08T15:50:15.560Z,18.30
2024-03-08T15:54:17.614Z,18.27
2024-03-08T15:58:19.796Z,17.30
2024-03-08T16:02:24.979Z,21.10
2024-03-08T16:06:27.010Z,18.10
2024-03-08T16:10:31.966Z,17.10
2024-03-08T16:14:39.117Z,19.10
2024-03-08T16:18:42.400Z,21.07
2024-03-08T16:22:48.279Z,21.17
2024-03-08T16:26:53.076Z,21.30
2024-03-08T16:30:56.826Z,16.57
2024-03-08T16:34:59.738Z,18.00
2024-03-08T16:39:03.185Z,18.77
2024-03-08T16:43:05.659Z,19.47
2024-03-08T16:47:07.763Z,16.67
2024-03-08T16:51:10.352Z,15.07
2024-03-08T16:55:16.818Z,15.37
2024-03-08T16:59:18.968Z,16.60
2024-03-08T17:03:22.030Z,16.77
2024-03-08T17:07:24.361Z,17.13
2024-03-08T17:11:26.656Z,16.90
2024-03-08T17:15:30.201Z,16.63
2024-03-08T17:19:32.440Z,20.40
2024-03-08T17:23:35.419Z,17.50
2024-03-08T17:27:37.782Z,17.87
2024-03-08T17:31:40.061Z,18.73
2024-03-08T17:35:42.598Z,25.77
2024-03-08T17:39:44.482Z,17.33
2024-03-08T17:43:47.654Z,16.10
2024-03-08T17:47:51.519Z,15.67
2024-03-08T17:51:53.977Z,17.77
2024-03-08T17:55:58.011Z,16.87
2024-03-08T18:00:00.463Z,16.23
2024-03-08T18:04:03.393Z,15.47
2024-03-08T18:08:06.301Z,14.23
2024-03-08T18:12:09.850Z,17.33
2024-03-08T18:16:12.854Z,12.93
2024-03-08T18:20:15.870Z,14.73
2024-03-08T18:24:19.422Z,16.40
2024-03-08T18:28:22.593Z,12.87
2024-03-08T18:32:24.851Z,13.97
2024-03-08T18:36:31.581Z,17.90
2024-03-08T18:40:33.898Z,15.80
2024-03-08T18:44:36.097Z,13.83
2024-03-08T18:48:39.289Z,15.13
2024-03-08T18:52:42.037Z,15.57
2024-03-08T18:56:44.653Z,22.37
2024-03-08T19:00:50.427Z,84.00
2024-03-08T19:04:56.447Z,69.93
2024-03-08T19:08:59.644Z,19.80
2024-03-08T19:13:03.266Z,17.17
2024-03-08T19:17:11.880Z,15.53
2024-03-08T19:21:14.201Z,12.40
2024-03-08T19:25:19.101Z,13.73
2024-03-08T19:29:25.910Z,14.97
2024-03-08T19:33:31.233Z,14.83
2024-03-08T19:37:34.763Z,14.97
2024-03-08T19:41:38.429Z,14.13
2024-03-08T19:45:41.278Z,13.23
2024-03-08T19:49:43.949Z,16.77
2024-03-08T19:53:46.052Z,15.20
2024-03-08T19:57:51.765Z,15.93
2024-03-08T20:01:54.457Z,12.73
2024-03-08T20:05:57.297Z,12.60
2024-03-08T20:09:59.656Z,14.90
2024-03-08T20:14:01.849Z,14.30
2024-03-08T20:18:05.180Z,49.57
2024-03-08T20:22:07.543Z,23.87
2024-03-08T20:26:12.443Z,19.13
2024-03-08T20:30:22.527Z,15.83
2024-03-08T20:34:26.488Z,16.07
2024-03-08T20:38:28.572Z,14.63
2024-03-08T20:42:31.339Z,14.50
2024-03-08T20:46:33.361Z,13.93
2024-03-08T20:50:39.489Z,13.27
2024-03-08T20:54:41.644Z,13.03
2024-03-08T20:58:44.903Z,11.67
2024-03-08T21:02:47.797Z,13.23
2024-03-08T21:06:49.965Z,16.80
2024-03-08T21:10:55.218Z,18.20
2024-03-08T21:14:57.687Z,20.03
2024-03-08T21:19:00.720Z,18.13
2024-03-08T21:23:05.887Z,13.47
2024-03-08T21:27:09.338Z,15.67
2024-03-08T21:31:11.766Z,19.10
2024-03-08T21:35:14.034Z,15.27
2024-03-08T21:39:17.270Z,17.50
2024-03-08T21:43:20.105Z,17.53
2024-03-08T21:47:22.740Z,13.10
2024-03-08T21:51:24.735Z,15.07
2024-03-08T21:55:27.119Z,14.37
2024-03-08T21:59:29.727Z,55.63
2024-03-08T22:03:35.067Z,51.50
2024-03-08T22:07:38.278Z,16.13
2024-03-08T22:11:40.430Z,16.10
2024-03-08T22:15:46.059Z,14.07
2024-03-08T22:19:48.128Z,14.33
2024-03-08T22:23:50.282Z,16.03
2024-03-08T22:27:53.537Z,17.63
2024-03-08T22:31:55.815Z,16.23
2024-03-08T22:35:59.040Z,13.37
2024-03-08T22:40:02.350Z,17.60
2024-03-08T22:44:04.961Z,17.43
2024-03-08T22:48:08.151Z,16.40
2024-03-08T22:52:11.952Z,19.87
2024-03-08T22:56:16.411Z,14.23
2024-03-08T23:00:19.468Z,15.97
2024-03-08T23:04:21.591Z,17.63
2024-03-08T23:08:24.729Z,14.60
2024-03-08T23:12:28.690Z,20.37
2024-03-08T23:16:31.382Z,18.10
2024-03-08T23:20:34.295Z,17.20
2024-03-08T23:24:37.584Z,15.60
2024-03-08T23:28:42.251Z,18.17
2024-03-08T23:32:47.393Z,16.53
2024-03-08T23:36:51.163Z,16.90
2024-03-08T23:40:53.418Z,16.30
2024-03-08T23:44:55.589Z,14.80
2024-03-08T23:48:57.643Z,14.97
2024-03-08T23:53:01.853Z,14.57
2024-03-08T23:57:05.968Z,17.67
